Archival Weather

Republic

Farmingdale, New York (KFRG)

Report from: Monday, February 12, 2024 3:53 AM EST
Current time: Saturday, June 22, 2024 6:40 AM EDT

Current weather – Weather history – Daily summaries
Weather forecast

Temperature3.3°C (37.9°F)
Dew point-2.2°C (28.0°F)
Winds Calm
Visibility10 mi. (16.1 km)
Clouds Sky clear
Altimeter29.91 in.Hg (1013 mB)
Relative humidity67 %
Density altitude-1,320 ft. (-402 m)
Sea-level pressure101.3 kPa (1013 mB, 29.91 in.Hg)
Remarks Fully automated report
Automated weather observing station without precipitation discriminator
Pressure falling, then rising
Flight conditions Visual Meteorological Conditions
Raw dataKFRG 120853Z AUTO 00000KT 10SM CLR 03/M02 A2991 RMK AO1 SLP127 T00331022 55005
An error has occurred. This application may no longer respond until reloaded. Reload 🗙